Flight Briefing for CPX805

Departure Arrival
Norfolk Naval Station (Chambers Field) (KNGU)
Click to view FAA NOTAMS
Joint Base McGuire Dix Lakehurst (KWRI)
Click to view FAA NOTAMS
Departure Time Arrival Time
N/A N/A
Aircraft Distance
B757-200SF 701nm
Departure METAR Arrival METAR
KNGU 192159Z 03008KT 10SM BKN060 OVC160 04/M09 A3061 RMK AO2 SLP364 T00391094 KWRI 192156Z AUTO 30007KT 10SM CLR 01/M13 A3052 RMK AO2 SLP336 T00121126
Suggested Route





View recent IFR Routes data
Notes
USTRANSCOM CONTRACT FLIGHT

Charts and Procedures

Charts for KNGU
No chart available
Charts for KWRI
No chart available

Ventusky Weather




{"cat":null,"equip":null,"transponder":null,"pbn":"PBN\/","maxpax":null,"oew":"0.0","mzfw":"0.0","mtow":"0.0","mlw":"0.0","maxfuel":"0.0"} DEVELOPMENTAL TEST USE ONLY